createdAt,value
2022-10-22T00:01:40.399Z,101523.69
2022-10-22T00:04:31.433Z,101511.41
2022-10-22T00:07:21.443Z,101520.94
2022-10-22T00:10:08.450Z,101519.16
2022-10-22T00:12:55.584Z,101509.47
2022-10-22T00:15:22.648Z,101499.72
2022-10-22T00:17:49.868Z,101500.59
2022-10-22T00:20:16.843Z,101497.91
2022-10-22T00:22:43.756Z,101487.34
2022-10-22T00:25:10.793Z,101477.66
2022-10-22T00:27:38.135Z,101473.13
2022-10-22T00:30:06.208Z,101469.59
2022-10-22T00:32:33.268Z,101466.03
2022-10-22T00:35:00.277Z,101458.91
2022-10-22T00:37:27.351Z,101465.88
2022-10-22T00:39:54.303Z,101460.66
2022-10-22T00:42:25.576Z,101463.16
2022-10-22T00:45:05.029Z,101456.09
2022-10-22T00:47:36.837Z,101453.41
2022-10-22T00:50:07.941Z,101447.22
2022-10-22T00:52:35.699Z,101417.53
2022-10-22T00:55:02.831Z,101433.94
2022-10-22T00:57:29.937Z,101424.28
2022-10-22T00:59:57.868Z,101435.59
2022-10-22T01:02:25.049Z,101418.88
2022-10-22T01:04:52.051Z,101430.25
2022-10-22T01:07:22.003Z,101423.22
2022-10-22T01:10:09.229Z,101369.91
2022-10-22T01:12:54.957Z,101402.03
2022-10-22T01:15:42.756Z,101402.81
2022-10-22T01:18:36.555Z,101409.00
2022-10-22T01:21:12.517Z,101410.75
2022-10-22T01:23:54.694Z,101409.84
2022-10-22T01:26:44.553Z,101409.84
2022-10-22T01:29:26.221Z,101407.16
2022-10-22T01:31:58.264Z,101400.09
2022-10-22T01:34:27.286Z,101403.53
2022-10-22T01:36:56.025Z,101394.75
2022-10-22T01:39:25.531Z,101395.59
2022-10-22T01:41:55.488Z,101397.41
2022-10-22T01:44:33.401Z,101393.81
2022-10-22T01:47:32.988Z,101392.94
2022-10-22T01:50:18.855Z,101375.28
2022-10-22T01:53:34.263Z,101375.28
2022-10-22T01:56:38.914Z,101373.50
2022-10-22T01:59:52.788Z,101373.44
2022-10-22T02:02:42.605Z,101362.88
2022-10-22T02:05:35.604Z,101363.66
2022-10-22T02:08:42.545Z,101361.03
2022-10-22T02:11:31.987Z,101360.97
2022-10-22T02:14:23.507Z,101355.66
2022-10-22T02:17:11.052Z,101348.59
2022-10-22T02:20:11.361Z,101338.91
2022-10-22T02:22:58.662Z,101342.34
2022-10-22T02:25:50.699Z,101309.34
2022-10-22T02:28:52.658Z,101283.13
2022-10-22T02:31:46.011Z,101323.75
2022-10-22T02:34:39.683Z,101315.84
2022-10-22T02:37:27.204Z,101317.56
2022-10-22T02:40:15.149Z,101216.91
2022-10-22T02:43:03.167Z,101314.84
2022-10-22T02:45:49.974Z,101310.38
2022-10-22T02:48:37.019Z,101306.84
2022-10-22T02:51:24.779Z,101299.00
2022-10-22T02:54:12.206Z,101294.47
2022-10-22T02:56:59.237Z,101290.94
2022-10-22T02:59:46.365Z,101277.84
2022-10-22T03:02:33.401Z,101283.81
2022-10-22T03:05:20.512Z,101281.16
2022-10-22T03:08:07.560Z,101272.34
2022-10-22T03:10:54.464Z,101270.56
2022-10-22T03:13:41.480Z,101268.72
2022-10-22T03:16:28.627Z,101263.38
2022-10-22T03:19:15.565Z,101258.09
2022-10-22T03:22:25.650Z,101219.78
2022-10-22T03:25:18.312Z,101237.81
2022-10-22T03:28:06.622Z,101236.94
2022-10-22T03:30:53.429Z,101230.84
2022-10-22T03:33:40.289Z,101228.94
2022-10-22T03:36:28.691Z,101206.22
2022-10-22T03:39:15.901Z,101226.25
2022-10-22T03:42:03.174Z,101221.84
2022-10-22T03:44:50.754Z,101176.63
2022-10-22T03:47:37.958Z,101203.31
2022-10-22T03:50:26.247Z,101206.78
2022-10-22T03:53:13.164Z,101200.72
2022-10-22T03:56:01.780Z,101136.53
2022-10-22T03:58:48.863Z,101195.28
2022-10-22T04:01:35.965Z,101198.75
2022-10-22T04:04:22.814Z,101193.47
2022-10-22T04:07:09.792Z,101186.41
2022-10-22T04:09:56.628Z,101185.47
2022-10-22T04:12:43.612Z,101179.31
2022-10-22T04:15:30.686Z,101174.03
2022-10-22T04:18:17.861Z,101174.03
2022-10-22T04:21:04.716Z,101165.16
2022-10-22T04:23:51.736Z,101170.44
2022-10-22T04:26:39.790Z,101157.22
2022-10-22T04:29:27.389Z,101158.09
2022-10-22T04:32:14.186Z,101152.81
2022-10-22T04:35:01.329Z,101151.94
2022-10-22T04:37:48.379Z,101151.94
2022-10-22T04:40:35.556Z,101141.41
2022-10-22T04:43:22.419Z,101146.69
2022-10-22T04:46:09.388Z,101143.16
2022-10-22T04:48:57.210Z,101130.09
2022-10-22T04:51:46.039Z,101127.38
2022-10-22T04:54:33.262Z,101139.69
2022-10-22T04:57:20.475Z,101117.75
2022-10-22T05:00:07.469Z,101116.75
2022-10-22T05:02:54.575Z,101116.75
2022-10-22T05:05:41.435Z,101118.47
2022-10-22T05:08:28.430Z,101110.59
2022-10-22T05:11:15.260Z,101109.56
2022-10-22T05:14:02.742Z,101103.47
2022-10-22T05:16:50.848Z,101104.31
2022-10-22T05:19:46.339Z,101103.47
2022-10-22T05:22:33.320Z,101100.88
2022-10-22T05:25:20.671Z,101064.44
2022-10-22T05:28:10.536Z,101095.63
2022-10-22T05:30:57.547Z,101059.31
2022-10-22T05:33:44.315Z,101098.13
2022-10-22T05:36:35.356Z,101099.03
2022-10-22T05:39:22.259Z,101104.38
2022-10-22T05:42:09.164Z,101105.25
2022-10-22T05:44:56.105Z,101102.59
2022-10-22T05:47:43.247Z,101106.13
2022-10-22T05:50:30.221Z,101099.03
2022-10-22T05:53:17.217Z,101087.56
2022-10-22T05:56:04.773Z,101053.53
2022-10-22T05:58:52.251Z,101069.81
2022-10-22T06:01:41.709Z,101067.19
2022-10-22T06:04:32.391Z,101066.28
2022-10-22T06:07:19.291Z,101055.75
2022-10-22T06:10:06.365Z,101064.38
2022-10-22T06:12:53.301Z,100978.75
2022-10-22T06:15:40.735Z,101060.78
2022-10-22T06:18:27.659Z,101060.78
2022-10-22T06:21:14.730Z,101052.94
2022-10-22T06:24:03.125Z,100972.38
2022-10-22T06:26:50.684Z,101043.09
2022-10-22T06:29:37.980Z,101018.81
2022-10-22T06:32:25.016Z,101035.00
2022-10-22T06:35:11.942Z,101044.47
2022-10-22T06:37:59.320Z,101037.34
2022-10-22T06:40:46.208Z,101042.59
2022-10-22T06:43:34.423Z,101036.38
2022-10-22T06:46:23.532Z,101035.38
2022-10-22T06:49:12.876Z,101031.84
2022-10-22T06:51:59.876Z,100991.13
2022-10-22T06:54:46.767Z,101031.72
2022-10-22T06:57:33.593Z,101020.22
2022-10-22T07:00:20.614Z,101022.81
2022-10-22T07:03:11.349Z,101004.66
2022-10-22T07:05:58.349Z,100985.59
2022-10-22T07:08:45.350Z,101008.59
2022-10-22T07:11:38.400Z,101015.63
2022-10-22T07:14:25.285Z,101014.66
2022-10-22T07:17:12.277Z,101006.69
2022-10-22T07:19:59.120Z,101006.59
2022-10-22T07:22:46.200Z,100998.66
2022-10-22T07:25:33.069Z,100984.81
2022-10-22T07:28:20.062Z,100991.47
2022-10-22T07:31:07.545Z,100991.41
2022-10-22T07:33:54.562Z,100996.66
2022-10-22T07:36:41.616Z,100973.09
2022-10-22T07:39:28.964Z,100972.75
2022-10-22T07:42:15.831Z,100975.28
2022-10-22T07:45:02.966Z,100968.16
2022-10-22T07:47:50.050Z,100966.25
2022-10-22T07:50:38.096Z,100909.06
2022-10-22T07:53:25.207Z,100962.53
2022-10-22T07:56:12.622Z,100953.53
2022-10-22T07:58:59.831Z,100948.97
2022-10-22T08:01:46.787Z,100953.34
2022-10-22T08:04:33.790Z,100942.44
2022-10-22T08:07:21.179Z,100931.78
2022-10-22T08:10:08.282Z,100930.53
2022-10-22T08:12:55.912Z,100922.31
2022-10-22T08:15:42.764Z,100921.16
2022-10-22T08:18:30.027Z,100920.09
2022-10-22T08:21:17.677Z,100887.75
2022-10-22T08:24:04.655Z,100909.06
2022-10-22T08:26:51.723Z,100896.53
2022-10-22T08:29:18.771Z,100904.28
2022-10-22T08:31:45.573Z,100903.25
2022-10-22T08:34:32.564Z,100896.88
2022-10-22T08:37:19.394Z,100899.47
2022-10-22T08:40:06.345Z,100892.25
2022-10-22T08:43:31.028Z,100886.03
2022-10-22T08:46:21.007Z,100875.34
2022-10-22T08:49:12.521Z,100869.16
2022-10-22T08:51:59.596Z,100855.75
2022-10-22T08:55:12.644Z,100837.13
2022-10-22T08:58:15.095Z,100835.25
2022-10-22T09:01:18.170Z,100843.94
2022-10-22T09:04:30.901Z,100823.00
2022-10-22T09:07:18.939Z,100836.72
2022-10-22T09:10:12.087Z,100834.00
2022-10-22T09:12:59.237Z,100799.00
2022-10-22T09:15:47.313Z,100810.91
2022-10-22T09:19:00.545Z,100815.28
2022-10-22T09:21:56.991Z,100817.94
2022-10-22T09:25:04.720Z,100801.97
2022-10-22T09:27:51.967Z,100770.75
2022-10-22T09:30:46.176Z,100791.16
2022-10-22T09:33:38.534Z,100775.94
2022-10-22T09:36:25.984Z,100762.50
2022-10-22T09:39:13.523Z,100756.09
2022-10-22T09:42:00.524Z,100751.53
2022-10-22T09:44:48.445Z,100752.22
2022-10-22T09:48:01.951Z,100743.41
2022-10-22T09:51:10.503Z,100731.00
2022-10-22T09:54:02.929Z,100738.19
2022-10-22T09:56:56.984Z,100733.03
2022-10-22T09:59:52.738Z,100721.59
2022-10-22T10:02:43.181Z,100728.78
2022-10-22T10:05:39.509Z,100722.69
2022-10-22T10:08:33.654Z,100720.13
2022-10-22T10:11:29.448Z,100709.50
2022-10-22T10:14:32.243Z,100711.28
2022-10-22T10:17:35.084Z,100711.28
2022-10-22T10:20:33.758Z,100702.38
2022-10-22T10:23:35.063Z,100701.53
2022-10-22T10:26:55.195Z,100644.03
2022-10-22T10:29:57.293Z,100699.28
2022-10-22T10:33:05.052Z,100692.50
2022-10-22T10:36:24.655Z,100681.44
2022-10-22T10:39:20.031Z,100684.38
2022-10-22T10:42:19.525Z,100687.31
2022-10-22T10:45:40.261Z,100692.97
2022-10-22T10:48:51.555Z,100686.44
2022-10-22T10:51:44.223Z,100664.72
2022-10-22T10:54:46.573Z,100654.38
2022-10-22T10:57:44.851Z,100648.16
2022-10-22T11:00:35.965Z,100643.72
2022-10-22T11:03:49.109Z,100646.84
2022-10-22T11:06:39.710Z,100632.13
2022-10-22T11:09:44.808Z,100643.41
2022-10-22T11:12:40.765Z,100656.31
2022-10-22T11:15:55.503Z,100652.50
2022-10-22T11:18:48.408Z,100657.63
2022-10-22T11:21:42.462Z,100653.03
2022-10-22T11:24:31.067Z,100640.72
2022-10-22T11:27:11.764Z,100639.84
2022-10-22T11:29:44.528Z,100622.16
2022-10-22T11:32:17.666Z,100619.38
2022-10-22T11:34:51.657Z,100619.31
2022-10-22T11:37:19.207Z,100575.19
2022-10-22T11:39:59.934Z,100590.94
2022-10-22T11:42:43.339Z,100591.72
2022-10-22T11:45:16.553Z,100585.28
2022-10-22T11:47:58.970Z,100582.44
2022-10-22T11:50:47.248Z,100584.00
2022-10-22T11:53:14.176Z,100582.00
2022-10-22T11:56:06.980Z,100566.88
2022-10-22T11:59:04.473Z,100560.63
2022-10-22T12:02:01.820Z,100576.53
2022-10-22T12:05:01.776Z,100517.72
2022-10-22T12:07:55.602Z,100572.78
2022-10-22T12:10:47.823Z,100573.03
2022-10-22T12:13:48.622Z,100581.41
2022-10-22T12:16:56.263Z,100560.91
2022-10-22T12:19:42.949Z,100563.47
2022-10-22T12:22:51.973Z,100572.34
2022-10-22T12:25:43.167Z,100546.72
2022-10-22T12:28:33.111Z,100545.97
2022-10-22T12:31:20.425Z,100548.03
2022-10-22T12:34:07.419Z,100547.31
2022-10-22T12:36:56.903Z,100567.78
2022-10-22T12:39:47.841Z,100562.63
2022-10-22T12:42:37.223Z,100560.94
2022-10-22T12:45:24.377Z,100553.88
2022-10-22T12:48:15.711Z,100548.81
2022-10-22T12:51:05.819Z,100557.69
2022-10-22T12:53:56.472Z,100567.56
2022-10-22T12:56:34.136Z,100476.44
2022-10-22T12:59:01.187Z,100556.56
2022-10-22T13:01:32.563Z,100520.81
2022-10-22T13:04:07.052Z,100570.88
2022-10-22T13:06:35.923Z,100572.75
2022-10-22T13:09:15.035Z,100568.50
2022-10-22T13:11:54.091Z,100578.38
2022-10-22T13:14:31.155Z,100580.25
2022-10-22T13:17:10.248Z,100571.66
2022-10-22T13:19:55.446Z,100582.59
2022-10-22T13:23:02.805Z,100565.22
2022-10-22T13:25:34.900Z,100570.66
2022-10-22T13:28:16.434Z,100571.63
2022-10-22T13:30:54.488Z,100557.78
2022-10-22T13:33:29.535Z,100562.97
2022-10-22T13:35:57.215Z,100558.00
2022-10-22T13:38:26.834Z,100564.25
2022-10-22T13:40:53.949Z,100555.50
2022-10-22T13:43:21.140Z,100559.94
2022-10-22T13:45:52.163Z,100487.31
2022-10-22T13:48:22.050Z,100545.03
2022-10-22T13:50:50.296Z,100541.69
2022-10-22T13:53:21.029Z,100540.97
2022-10-22T13:55:49.372Z,100546.47
2022-10-22T13:58:19.267Z,100555.47
2022-10-22T14:00:49.376Z,100567.97
2022-10-22T14:03:20.273Z,100562.88
2022-10-22T14:05:48.273Z,100564.88
2022-10-22T14:08:20.770Z,100566.63
2022-10-22T14:10:48.466Z,100573.81
2022-10-22T14:13:17.255Z,100578.28
2022-10-22T14:15:46.970Z,100579.31
2022-10-22T14:18:24.284Z,100575.84
2022-10-22T14:20:57.328Z,100575.03
2022-10-22T14:23:29.952Z,100577.88
2022-10-22T14:25:58.531Z,100578.81
2022-10-22T14:28:25.461Z,100584.25
2022-10-22T14:30:53.058Z,100556.78
2022-10-22T14:33:28.992Z,100571.34
2022-10-22T14:36:00.051Z,100572.19
2022-10-22T14:38:27.362Z,100573.44
2022-10-22T14:40:54.937Z,100568.16
2022-10-22T14:43:31.360Z,100582.44
2022-10-22T14:45:58.588Z,100582.56
2022-10-22T14:48:25.505Z,100580.13
2022-10-22T14:50:52.775Z,100589.09
2022-10-22T14:53:19.885Z,100588.50
2022-10-22T14:56:07.323Z,100580.75
2022-10-22T14:58:54.396Z,100589.72
2022-10-22T15:01:41.640Z,100590.78
2022-10-22T15:04:29.241Z,100526.91
2022-10-22T15:07:18.936Z,100588.16
2022-10-22T15:10:06.272Z,100581.13
2022-10-22T15:12:53.687Z,100582.84
2022-10-22T15:15:40.709Z,100591.56
2022-10-22T15:18:27.959Z,100594.28
2022-10-22T15:21:23.874Z,100551.25
2022-10-22T15:24:10.748Z,100604.00
2022-10-22T15:26:58.063Z,100612.78
2022-10-22T15:29:45.004Z,100611.13
2022-10-22T15:32:31.845Z,100604.91
2022-10-22T15:35:18.811Z,100598.97
2022-10-22T15:38:05.712Z,100608.72
2022-10-22T15:40:52.580Z,100608.97
2022-10-22T15:43:39.535Z,100604.81
2022-10-22T15:46:35.348Z,100605.13
2022-10-22T15:49:22.569Z,100609.69
2022-10-22T15:52:09.929Z,100602.00
2022-10-22T15:54:56.768Z,100583.63
2022-10-22T15:57:44.270Z,100579.59
2022-10-22T16:00:32.281Z,100603.78
2022-10-22T16:03:19.237Z,100585.00
2022-10-22T16:06:12.543Z,100600.78
2022-10-22T16:08:59.791Z,100592.16
2022-10-22T16:11:48.281Z,100607.09
2022-10-22T16:14:37.100Z,100581.88
2022-10-22T16:17:24.078Z,100601.06
2022-10-22T16:23:03.650Z,100595.09
2022-10-22T16:25:50.749Z,100589.97
2022-10-22T16:28:37.724Z,100594.84
2022-10-22T16:31:27.411Z,100598.59
2022-10-22T16:34:14.319Z,100597.16
2022-10-22T16:37:01.101Z,100601.69
2022-10-22T16:39:48.063Z,100602.72
2022-10-22T16:42:35.018Z,100595.91
2022-10-22T16:45:22.349Z,100594.97
2022-10-22T16:48:09.268Z,100601.13
2022-10-22T16:50:59.363Z,100555.50
2022-10-22T16:53:46.353Z,100599.59
2022-10-22T16:56:35.650Z,100591.22
2022-10-22T16:59:22.428Z,100598.16
2022-10-22T17:02:09.477Z,100595.63
2022-10-22T17:04:56.619Z,100598.34
2022-10-22T17:07:43.606Z,100599.38
2022-10-22T17:10:30.571Z,100600.56
2022-10-22T17:13:17.427Z,100606.59
2022-10-22T17:16:04.339Z,100604.00
2022-10-22T17:18:52.362Z,100605.94
2022-10-22T17:21:40.292Z,100605.22
2022-10-22T17:24:27.282Z,100601.09
2022-10-22T17:27:14.117Z,100603.97
2022-10-22T17:30:00.964Z,100597.81
2022-10-22T17:32:47.820Z,100610.03
2022-10-22T17:35:35.185Z,100599.59
2022-10-22T17:38:22.099Z,100607.25
2022-10-22T17:41:11.444Z,100581.91
2022-10-22T17:43:41.613Z,100605.53
2022-10-22T17:46:13.324Z,100599.38
2022-10-22T17:48:40.336Z,100600.22
2022-10-22T17:51:28.867Z,100597.66
2022-10-22T17:54:15.852Z,100596.13
2022-10-22T17:57:03.267Z,100536.88
2022-10-22T17:59:50.083Z,100591.41
2022-10-22T18:02:38.097Z,100593.31
2022-10-22T18:05:25.551Z,100588.97
2022-10-22T18:08:16.519Z,100588.91
2022-10-22T18:11:03.360Z,100586.19
2022-10-22T18:13:50.300Z,100575.00
2022-10-22T18:16:37.907Z,100584.38
2022-10-22T18:19:24.838Z,100582.69
2022-10-22T18:22:11.827Z,100584.47
2022-10-22T18:24:58.899Z,100567.06
2022-10-22T18:27:45.761Z,100573.16
2022-10-22T18:30:32.871Z,100574.97
2022-10-22T18:33:19.800Z,100568.03
2022-10-22T18:36:07.090Z,100566.41
2022-10-22T18:38:54.992Z,100576.13
2022-10-22T18:41:42.397Z,100571.78
2022-10-22T18:44:33.285Z,100570.03
2022-10-22T18:47:20.165Z,100563.06
2022-10-22T18:50:07.152Z,100439.75
2022-10-22T18:52:54.288Z,100491.63
2022-10-22T18:55:41.237Z,100564.06
2022-10-22T18:58:28.343Z,100553.59
2022-10-22T19:01:15.272Z,100552.78
2022-10-22T19:03:43.201Z,100553.63
2022-10-22T19:06:33.331Z,100557.88
2022-10-22T19:09:24.377Z,100553.59
2022-10-22T19:12:11.223Z,100558.66
2022-10-22T19:14:58.136Z,100558.63
2022-10-22T19:17:45.348Z,100566.47
2022-10-22T19:20:33.224Z,100531.25
2022-10-22T19:23:20.875Z,100571.78
2022-10-22T19:26:07.945Z,100568.22
2022-10-22T19:28:54.844Z,100560.28
2022-10-22T19:31:44.305Z,100559.41
2022-10-22T19:34:31.331Z,100556.81
2022-10-22T19:37:18.465Z,100545.44
2022-10-22T19:40:05.204Z,100549.78
2022-10-22T19:42:52.052Z,100557.59
2022-10-22T19:45:38.804Z,100556.69
2022-10-22T19:48:25.751Z,100538.53
2022-10-22T19:51:18.747Z,100542.56
2022-10-22T19:54:06.065Z,100536.38
2022-10-22T19:56:55.164Z,100538.09
2022-10-22T19:59:41.913Z,100533.69
2022-10-22T20:02:34.842Z,100543.31
2022-10-22T20:08:13.166Z,100544.13
2022-10-22T20:11:00.022Z,100544.19
2022-10-22T20:13:49.708Z,100539.84
2022-10-22T20:16:40.950Z,100554.63
2022-10-22T20:19:27.921Z,100515.81
2022-10-22T20:22:17.796Z,100555.44
2022-10-22T20:25:05.543Z,100559.78
2022-10-22T20:27:52.231Z,100550.22
2022-10-22T20:30:39.179Z,100568.50
2022-10-22T20:33:26.108Z,100560.59
2022-10-22T20:36:20.739Z,100557.97
2022-10-22T20:39:10.442Z,100556.16
2022-10-22T20:41:57.955Z,100542.38
2022-10-22T20:44:44.768Z,100569.28
2022-10-22T20:47:44.388Z,100567.50
2022-10-22T20:50:38.818Z,100474.47
2022-10-22T20:53:25.523Z,100574.47
2022-10-22T20:56:16.582Z,100494.22
2022-10-22T20:59:04.374Z,100566.56
2022-10-22T21:02:17.464Z,100574.47
2022-10-22T21:05:04.212Z,100580.50
2022-10-22T21:07:50.911Z,100576.13
2022-10-22T21:10:37.676Z,100582.22
2022-10-22T21:13:24.418Z,100583.91
2022-10-22T21:16:11.150Z,100489.09
2022-10-22T21:18:58.488Z,100588.22
2022-10-22T21:21:45.479Z,100589.03
2022-10-22T21:24:32.751Z,100593.41
2022-10-22T21:27:19.501Z,100587.19
2022-10-22T21:30:06.217Z,100586.25
2022-10-22T21:32:53.009Z,100595.81
2022-10-22T21:35:39.692Z,100599.28
2022-10-22T21:38:26.529Z,100592.19
2022-10-22T21:41:13.333Z,100589.47
2022-10-22T21:44:01.665Z,100598.16
2022-10-22T21:46:48.824Z,100595.44
2022-10-22T21:49:35.620Z,100593.81
2022-10-22T21:52:22.348Z,100591.84
2022-10-22T21:55:09.054Z,100602.22
2022-10-22T21:57:55.777Z,100600.47
2022-10-22T22:00:42.574Z,100594.13
2022-10-22T22:03:29.279Z,100598.31
2022-10-22T22:06:28.316Z,100596.44
2022-10-22T22:09:18.943Z,100602.38
2022-10-22T22:12:05.957Z,100604.84
2022-10-22T22:14:52.720Z,100605.63
2022-10-22T22:17:39.463Z,100603.72
2022-10-22T22:20:26.593Z,100597.44
2022-10-22T22:23:13.395Z,100600.75
2022-10-22T22:26:00.141Z,100598.00
2022-10-22T22:28:48.992Z,100593.50
2022-10-22T22:31:44.366Z,100587.25
2022-10-22T22:34:33.738Z,100590.63
2022-10-22T22:37:20.467Z,100591.41
2022-10-22T22:40:07.177Z,100564.53
2022-10-22T22:42:53.889Z,100605.25
2022-10-22T22:45:40.612Z,100596.28
2022-10-22T22:48:27.960Z,100590.91
2022-10-22T22:51:14.955Z,100558.88
2022-10-22T22:54:01.673Z,100593.38
2022-10-22T22:56:50.713Z,100582.69
2022-10-22T22:59:37.416Z,100587.88
2022-10-22T23:02:24.112Z,100586.88
2022-10-22T23:05:10.807Z,100583.34
2022-10-22T23:07:57.531Z,100489.41
2022-10-22T23:10:44.232Z,100590.09
2022-10-22T23:13:30.924Z,100584.72
2022-10-22T23:16:17.667Z,100599.59
2022-10-22T23:19:05.745Z,100596.91
2022-10-22T23:21:58.404Z,100601.19
2022-10-22T23:24:47.967Z,100598.44
2022-10-22T23:27:34.692Z,100599.25
2022-10-22T23:30:21.464Z,100518.88
2022-10-22T23:33:08.174Z,100602.63
2022-10-22T23:35:54.882Z,100597.22
2022-10-22T23:38:41.616Z,100598.03
2022-10-22T23:41:28.619Z,100505.78
2022-10-22T23:44:15.343Z,100582.94
2022-10-22T23:47:02.107Z,100568.47
2022-10-22T23:49:48.802Z,100585.41
2022-10-22T23:52:35.523Z,100584.47
2022-10-22T23:55:22.226Z,100585.28
2022-10-22T23:58:08.929Z,100584.59
